Raisin, California
Current Conditions -  °F | °C
As of 7:53 AM on Saturday 25 Oct 2014 (Local Time) from KFAT Reporting Station
Haze Haze  
Wind Chill: 58°   Ceiling: 20000
Heat Index: 58°   Visibility: 6mi
Dew Point: 45°   Wind: 0mph
Humidity: 62%   Direction: NA
Pressure: 30.03"   Gusts: NA
Location:  36.6°N, 119.9°W
Report Text: KFAT 251453Z 00000KT 6SM HZ FEW150 BKN200 14/07 A3003 RMK AO2 SLP166 T01440072 53021
Loading
Personal Weather Stations






























Interactive Weather Map New forecast layout! Learn more

10-Day Weather Forecast

Advertisements
Track Severe Weather on mobile